sensor_id;sensor_type;location;lat;lon;timestamp;P1;durP1;ratioP1;P2;durP2;ratioP2
20036;SDS011;10179;42.640;23.312;2024-01-15T00:00:32;34.08;;;16.05;;
20036;SDS011;10179;42.640;23.312;2024-01-15T00:02:58;43.53;;;20.90;;
20036;SDS011;10179;42.640;23.312;2024-01-15T00:05:23;42.58;;;21.08;;
20036;SDS011;10179;42.640;23.312;2024-01-15T00:07:49;25.40;;;13.23;;
20036;SDS011;10179;42.640;23.312;2024-01-15T00:10:14;30.25;;;16.08;;
20036;SDS011;10179;42.640;23.312;2024-01-15T00:12:40;33.45;;;17.13;;
20036;SDS011;10179;42.640;23.312;2024-01-15T00:15:05;34.35;;;17.55;;
20036;SDS011;10179;42.640;23.312;2024-01-15T00:17:31;35.65;;;15.70;;
20036;SDS011;10179;42.640;23.312;2024-01-15T00:19:56;34.10;;;14.82;;
20036;SDS011;10179;42.640;23.312;2024-01-15T00:22:23;35.55;;;17.35;;
20036;SDS011;10179;42.640;23.312;2024-01-15T00:24:50;41.70;;;19.35;;
20036;SDS011;10179;42.640;23.312;2024-01-15T00:27:15;39.85;;;18.48;;
20036;SDS011;10179;42.640;23.312;2024-01-15T00:29:40;43.15;;;19.67;;
20036;SDS011;10179;42.640;23.312;2024-01-15T00:32:06;39.08;;;19.30;;
20036;SDS011;10179;42.640;23.312;2024-01-15T00:34:31;37.08;;;18.40;;
20036;SDS011;10179;42.640;23.312;2024-01-15T00:36:57;34.20;;;14.32;;
20036;SDS011;10179;42.640;23.312;2024-01-15T00:39:22;25.35;;;13.77;;
20036;SDS011;10179;42.640;23.312;2024-01-15T00:41:47;31.58;;;15.00;;
20036;SDS011;10179;42.640;23.312;2024-01-15T00:44:13;28.58;;;13.50;;
20036;SDS011;10179;42.640;23.312;2024-01-15T00:46:42;25.90;;;12.98;;
20036;SDS011;10179;42.640;23.312;2024-01-15T00:49:09;34.35;;;15.93;;
20036;SDS011;10179;42.640;23.312;2024-01-15T00:51:35;33.47;;;16.40;;
20036;SDS011;10179;42.640;23.312;2024-01-15T00:54:00;32.45;;;16.88;;
20036;SDS011;10179;42.640;23.312;2024-01-15T00:56:25;39.88;;;19.35;;
20036;SDS011;10179;42.640;23.312;2024-01-15T00:58:51;33.72;;;14.95;;
20036;SDS011;10179;42.640;23.312;2024-01-15T01:01:16;38.17;;;17.15;;
20036;SDS011;10179;42.640;23.312;2024-01-15T01:03:42;28.48;;;13.38;;
20036;SDS011;10179;42.640;23.312;2024-01-15T01:06:07;35.53;;;17.58;;
20036;SDS011;10179;42.640;23.312;2024-01-15T01:08:32;32.28;;;16.30;;
20036;SDS011;10179;42.640;23.312;2024-01-15T01:10:58;38.38;;;18.88;;
20036;SDS011;10179;42.640;23.312;2024-01-15T01:13:23;41.35;;;16.15;;
20036;SDS011;10179;42.640;23.312;2024-01-15T01:15:48;47.22;;;19.33;;
20036;SDS011;10179;42.640;23.312;2024-01-15T01:18:14;46.22;;;19.75;;
20036;SDS011;10179;42.640;23.312;2024-01-15T01:20:39;29.40;;;14.65;;
20036;SDS011;10179;42.640;23.312;2024-01-15T01:23:04;44.00;;;18.27;;
20036;SDS011;10179;42.640;23.312;2024-01-15T01:25:30;41.15;;;19.15;;
20036;SDS011;10179;42.640;23.312;2024-01-15T01:27:55;35.70;;;16.02;;
20036;SDS011;10179;42.640;23.312;2024-01-15T01:30:20;30.55;;;15.85;;
20036;SDS011;10179;42.640;23.312;2024-01-15T01:32:46;30.02;;;16.13;;
20036;SDS011;10179;42.640;23.312;2024-01-15T01:35:12;33.50;;;16.38;;
20036;SDS011;10179;42.640;23.312;2024-01-15T01:37:37;31.73;;;16.70;;
20036;SDS011;10179;42.640;23.312;2024-01-15T01:40:03;33.88;;;17.42;;
20036;SDS011;10179;42.640;23.312;2024-01-15T01:42:29;28.13;;;15.30;;
20036;SDS011;10179;42.640;23.312;2024-01-15T01:44:54;31.55;;;15.70;;
20036;SDS011;10179;42.640;23.312;2024-01-15T01:47:19;30.65;;;17.08;;
20036;SDS011;10179;42.640;23.312;2024-01-15T01:49:45;29.73;;;16.48;;
20036;SDS011;10179;42.640;23.312;2024-01-15T01:52:11;33.25;;;16.50;;
20036;SDS011;10179;42.640;23.312;2024-01-15T01:54:37;29.77;;;17.00;;
20036;SDS011;10179;42.640;23.312;2024-01-15T01:57:04;30.58;;;16.40;;
20036;SDS011;10179;42.640;23.312;2024-01-15T01:59:32;30.42;;;15.25;;
20036;SDS011;10179;42.640;23.312;2024-01-15T02:01:59;34.35;;;17.98;;
20036;SDS011;10179;42.640;23.312;2024-01-15T02:04:26;34.42;;;15.13;;
20036;SDS011;10179;42.640;23.312;2024-01-15T02:06:51;31.73;;;16.52;;
20036;SDS011;10179;42.640;23.312;2024-01-15T02:09:17;32.88;;;18.13;;
20036;SDS011;10179;42.640;23.312;2024-01-15T02:11:43;36.10;;;17.40;;
20036;SDS011;10179;42.640;23.312;2024-01-15T02:14:11;35.67;;;16.60;;
20036;SDS011;10179;42.640;23.312;2024-01-15T02:16:36;33.95;;;16.98;;
20036;SDS011;10179;42.640;23.312;2024-01-15T02:19:02;33.15;;;16.63;;
20036;SDS011;10179;42.640;23.312;2024-01-15T02:21:27;27.25;;;14.15;;
20036;SDS011;10179;42.640;23.312;2024-01-15T02:23:54;26.30;;;13.18;;
20036;SDS011;10179;42.640;23.312;2024-01-15T02:26:20;30.13;;;14.05;;
20036;SDS011;10179;42.640;23.312;2024-01-15T02:28:45;27.42;;;14.27;;
20036;SDS011;10179;42.640;23.312;2024-01-15T02:31:11;33.53;;;14.25;;
20036;SDS011;10179;42.640;23.312;2024-01-15T02:33:36;27.75;;;14.00;;
20036;SDS011;10179;42.640;23.312;2024-01-15T02:36:01;33.50;;;12.98;;
20036;SDS011;10179;42.640;23.312;2024-01-15T02:38:27;26.75;;;13.90;;
20036;SDS011;10179;42.640;23.312;2024-01-15T02:40:52;32.90;;;14.75;;
20036;SDS011;10179;42.640;23.312;2024-01-15T02:43:18;28.38;;;13.18;;
20036;SDS011;10179;42.640;23.312;2024-01-15T02:45:44;23.88;;;12.57;;
20036;SDS011;10179;42.640;23.312;2024-01-15T02:48:10;28.95;;;13.75;;
20036;SDS011;10179;42.640;23.312;2024-01-15T02:50:36;28.42;;;14.48;;
20036;SDS011;10179;42.640;23.312;2024-01-15T02:53:01;32.50;;;14.27;;
20036;SDS011;10179;42.640;23.312;2024-01-15T02:55:26;30.88;;;15.20;;
20036;SDS011;10179;42.640;23.312;2024-01-15T02:57:54;26.67;;;13.13;;
20036;SDS011;10179;42.640;23.312;2024-01-15T03:00:20;29.52;;;15.10;;
20036;SDS011;10179;42.640;23.312;2024-01-15T03:02:45;34.47;;;14.57;;
20036;SDS011;10179;42.640;23.312;2024-01-15T03:05:11;28.02;;;13.43;;
20036;SDS011;10179;42.640;23.312;2024-01-15T03:07:36;29.08;;;14.25;;
20036;SDS011;10179;42.640;23.312;2024-01-15T03:10:02;28.73;;;14.13;;
20036;SDS011;10179;42.640;23.312;2024-01-15T03:12:27;31.10;;;13.50;;
20036;SDS011;10179;42.640;23.312;2024-01-15T03:14:53;27.83;;;14.07;;
20036;SDS011;10179;42.640;23.312;2024-01-15T03:17:18;36.08;;;16.08;;
20036;SDS011;10179;42.640;23.312;2024-01-15T03:19:44;30.30;;;13.93;;
20036;SDS011;10179;42.640;23.312;2024-01-15T03:22:09;29.30;;;13.30;;
20036;SDS011;10179;42.640;23.312;2024-01-15T03:24:34;30.70;;;12.88;;
20036;SDS011;10179;42.640;23.312;2024-01-15T03:27:00;24.85;;;11.63;;
20036;SDS011;10179;42.640;23.312;2024-01-15T03:29:26;23.73;;;11.82;;
20036;SDS011;10179;42.640;23.312;2024-01-15T03:31:52;29.15;;;12.32;;
20036;SDS011;10179;42.640;23.312;2024-01-15T03:34:17;28.40;;;13.18;;
20036;SDS011;10179;42.640;23.312;2024-01-15T03:36:43;28.33;;;10.32;;
20036;SDS011;10179;42.640;23.312;2024-01-15T03:39:08;25.17;;;10.75;;
20036;SDS011;10179;42.640;23.312;2024-01-15T03:41:33;25.15;;;12.57;;
20036;SDS011;10179;42.640;23.312;2024-01-15T03:43:59;21.15;;;9.90;;
20036;SDS011;10179;42.640;23.312;2024-01-15T03:46:24;23.17;;;11.52;;
20036;SDS011;10179;42.640;23.312;2024-01-15T03:48:50;23.58;;;11.85;;
20036;SDS011;10179;42.640;23.312;2024-01-15T03:51:17;23.40;;;12.02;;
20036;SDS011;10179;42.640;23.312;2024-01-15T03:53:42;22.77;;;11.18;;
20036;SDS011;10179;42.640;23.312;2024-01-15T03:56:08;28.30;;;12.32;;
20036;SDS011;10179;42.640;23.312;2024-01-15T03:58:33;26.02;;;11.68;;
20036;SDS011;10179;42.640;23.312;2024-01-15T04:00:58;23.20;;;11.15;;
20036;SDS011;10179;42.640;23.312;2024-01-15T04:03:24;24.60;;;10.02;;
20036;SDS011;10179;42.640;23.312;2024-01-15T04:05:49;21.20;;;9.90;;
20036;SDS011;10179;42.640;23.312;2024-01-15T04:08:14;21.65;;;10.70;;
20036;SDS011;10179;42.640;23.312;2024-01-15T04:10:40;21.60;;;11.75;;
20036;SDS011;10179;42.640;23.312;2024-01-15T04:13:05;30.77;;;13.30;;
20036;SDS011;10179;42.640;23.312;2024-01-15T04:15:30;26.95;;;13.13;;
20036;SDS011;10179;42.640;23.312;2024-01-15T04:17:56;24.85;;;12.20;;
20036;SDS011;10179;42.640;23.312;2024-01-15T04:20:21;26.92;;;13.35;;
20036;SDS011;10179;42.640;23.312;2024-01-15T04:22:46;22.77;;;11.82;;
20036;SDS011;10179;42.640;23.312;2024-01-15T04:25:12;30.90;;;13.32;;
20036;SDS011;10179;42.640;23.312;2024-01-15T04:27:37;23.83;;;11.85;;
20036;SDS011;10179;42.640;23.312;2024-01-15T04:30:03;28.25;;;13.10;;
20036;SDS011;10179;42.640;23.312;2024-01-15T04:32:28;30.00;;;13.90;;
20036;SDS011;10179;42.640;23.312;2024-01-15T04:34:54;25.30;;;12.55;;
20036;SDS011;10179;42.640;23.312;2024-01-15T04:37:20;24.38;;;12.30;;
20036;SDS011;10179;42.640;23.312;2024-01-15T04:39:45;23.60;;;11.90;;
20036;SDS011;10179;42.640;23.312;2024-01-15T04:42:11;24.25;;;12.10;;
20036;SDS011;10179;42.640;23.312;2024-01-15T04:44:36;27.55;;;12.48;;
20036;SDS011;10179;42.640;23.312;2024-01-15T04:47:02;34.10;;;13.43;;
20036;SDS011;10179;42.640;23.312;2024-01-15T04:49:27;31.55;;;13.85;;
20036;SDS011;10179;42.640;23.312;2024-01-15T04:51:54;37.90;;;15.48;;
20036;SDS011;10179;42.640;23.312;2024-01-15T04:54:19;37.33;;;16.48;;
20036;SDS011;10179;42.640;23.312;2024-01-15T04:56:45;29.25;;;13.65;;
20036;SDS011;10179;42.640;23.312;2024-01-15T04:59:11;38.47;;;16.50;;
20036;SDS011;10179;42.640;23.312;2024-01-15T05:01:36;24.58;;;11.73;;
20036;SDS011;10179;42.640;23.312;2024-01-15T05:04:02;27.63;;;12.73;;
20036;SDS011;10179;42.640;23.312;2024-01-15T05:06:27;28.48;;;11.45;;
20036;SDS011;10179;42.640;23.312;2024-01-15T05:08:53;25.33;;;11.82;;
20036;SDS011;10179;42.640;23.312;2024-01-15T05:11:18;25.90;;;10.90;;
20036;SDS011;10179;42.640;23.312;2024-01-15T05:13:44;25.98;;;12.07;;
20036;SDS011;10179;42.640;23.312;2024-01-15T05:16:09;35.08;;;15.10;;
20036;SDS011;10179;42.640;23.312;2024-01-15T05:18:34;32.80;;;14.95;;
20036;SDS011;10179;42.640;23.312;2024-01-15T05:21:02;31.55;;;13.75;;
20036;SDS011;10179;42.640;23.312;2024-01-15T05:23:28;26.55;;;11.48;;
20036;SDS011;10179;42.640;23.312;2024-01-15T05:25:53;39.00;;;14.93;;
20036;SDS011;10179;42.640;23.312;2024-01-15T05:28:18;31.42;;;13.50;;
20036;SDS011;10179;42.640;23.312;2024-01-15T05:30:44;33.95;;;16.45;;
20036;SDS011;10179;42.640;23.312;2024-01-15T05:33:09;32.00;;;14.65;;
20036;SDS011;10179;42.640;23.312;2024-01-15T05:35:35;31.20;;;14.30;;
20036;SDS011;10179;42.640;23.312;2024-01-15T05:38:00;31.40;;;14.43;;
20036;SDS011;10179;42.640;23.312;2024-01-15T05:40:25;28.83;;;14.82;;
20036;SDS011;10179;42.640;23.312;2024-01-15T05:42:51;28.98;;;14.82;;
20036;SDS011;10179;42.640;23.312;2024-01-15T05:45:17;34.90;;;15.80;;
20036;SDS011;10179;42.640;23.312;2024-01-15T05:47:42;33.35;;;16.02;;
20036;SDS011;10179;42.640;23.312;2024-01-15T05:50:09;29.83;;;15.25;;
20036;SDS011;10179;42.640;23.312;2024-01-15T05:52:34;37.45;;;17.00;;
20036;SDS011;10179;42.640;23.312;2024-01-15T05:55:00;39.72;;;18.27;;
20036;SDS011;10179;42.640;23.312;2024-01-15T05:57:25;101.85;;;39.65;;
20036;SDS011;10179;42.640;23.312;2024-01-15T05:59:51;72.35;;;28.98;;
20036;SDS011;10179;42.640;23.312;2024-01-15T06:02:16;59.40;;;23.45;;
20036;SDS011;10179;42.640;23.312;2024-01-15T06:04:42;54.35;;;23.23;;
20036;SDS011;10179;42.640;23.312;2024-01-15T06:07:07;48.25;;;22.50;;
20036;SDS011;10179;42.640;23.312;2024-01-15T06:09:32;214.57;;;85.10;;
20036;SDS011;10179;42.640;23.312;2024-01-15T06:11:59;154.27;;;64.72;;
20036;SDS011;10179;42.640;23.312;2024-01-15T06:14:25;68.40;;;32.63;;
20036;SDS011;10179;42.640;23.312;2024-01-15T06:16:50;51.50;;;25.88;;
20036;SDS011;10179;42.640;23.312;2024-01-15T06:19:15;57.55;;;26.60;;
20036;SDS011;10179;42.640;23.312;2024-01-15T06:21:41;71.25;;;32.63;;
20036;SDS011;10179;42.640;23.312;2024-01-15T06:24:06;61.67;;;29.85;;
20036;SDS011;10179;42.640;23.312;2024-01-15T06:26:32;44.65;;;22.40;;
20036;SDS011;10179;42.640;23.312;2024-01-15T06:28:57;63.85;;;28.48;;
20036;SDS011;10179;42.640;23.312;2024-01-15T06:31:22;75.50;;;33.95;;
20036;SDS011;10179;42.640;23.312;2024-01-15T06:33:48;56.78;;;29.05;;
20036;SDS011;10179;42.640;23.312;2024-01-15T06:36:14;58.38;;;26.13;;
20036;SDS011;10179;42.640;23.312;2024-01-15T06:38:41;56.38;;;27.02;;
20036;SDS011;10179;42.640;23.312;2024-01-15T06:41:07;57.53;;;27.63;;
20036;SDS011;10179;42.640;23.312;2024-01-15T06:43:33;64.70;;;29.85;;
20036;SDS011;10179;42.640;23.312;2024-01-15T06:45:58;48.75;;;23.58;;
20036;SDS011;10179;42.640;23.312;2024-01-15T06:48:23;52.05;;;25.73;;
20036;SDS011;10179;42.640;23.312;2024-01-15T06:50:49;48.63;;;23.25;;
20036;SDS011;10179;42.640;23.312;2024-01-15T06:53:14;43.80;;;22.33;;
20036;SDS011;10179;42.640;23.312;2024-01-15T06:55:40;39.95;;;21.10;;
20036;SDS011;10179;42.640;23.312;2024-01-15T06:58:05;45.42;;;21.83;;
20036;SDS011;10179;42.640;23.312;2024-01-15T07:00:30;46.13;;;22.08;;
20036;SDS011;10179;42.640;23.312;2024-01-15T07:02:56;45.42;;;23.75;;
20036;SDS011;10179;42.640;23.312;2024-01-15T07:05:21;54.03;;;25.25;;
20036;SDS011;10179;42.640;23.312;2024-01-15T07:07:47;54.58;;;26.92;;
20036;SDS011;10179;42.640;23.312;2024-01-15T07:10:12;57.03;;;26.10;;
20036;SDS011;10179;42.640;23.312;2024-01-15T07:12:38;47.97;;;24.02;;
20036;SDS011;10179;42.640;23.312;2024-01-15T07:15:04;48.42;;;23.00;;
20036;SDS011;10179;42.640;23.312;2024-01-15T07:17:32;49.10;;;23.92;;
20036;SDS011;10179;42.640;23.312;2024-01-15T07:19:57;44.80;;;22.33;;
20036;SDS011;10179;42.640;23.312;2024-01-15T07:22:22;48.33;;;24.27;;
20036;SDS011;10179;42.640;23.312;2024-01-15T07:24:48;52.95;;;27.33;;
20036;SDS011;10179;42.640;23.312;2024-01-15T07:27:13;48.15;;;24.20;;
20036;SDS011;10179;42.640;23.312;2024-01-15T07:29:38;49.33;;;22.70;;
20036;SDS011;10179;42.640;23.312;2024-01-15T07:32:04;48.60;;;23.73;;
20036;SDS011;10179;42.640;23.312;2024-01-15T07:34:30;52.25;;;25.95;;
20036;SDS011;10179;42.640;23.312;2024-01-15T07:36:56;58.92;;;26.58;;
20036;SDS011;10179;42.640;23.312;2024-01-15T07:39:22;48.53;;;23.85;;
20036;SDS011;10179;42.640;23.312;2024-01-15T07:41:49;59.85;;;27.05;;
20036;SDS011;10179;42.640;23.312;2024-01-15T07:44:15;53.70;;;26.50;;
20036;SDS011;10179;42.640;23.312;2024-01-15T07:46:43;57.28;;;26.33;;
20036;SDS011;10179;42.640;23.312;2024-01-15T07:49:10;64.38;;;35.00;;
20036;SDS011;10179;42.640;23.312;2024-01-15T07:51:35;57.40;;;27.55;;
20036;SDS011;10179;42.640;23.312;2024-01-15T07:54:01;66.43;;;31.23;;
20036;SDS011;10179;42.640;23.312;2024-01-15T07:56:27;57.45;;;29.40;;
20036;SDS011;10179;42.640;23.312;2024-01-15T07:58:52;58.00;;;28.80;;
20036;SDS011;10179;42.640;23.312;2024-01-15T08:01:18;58.97;;;25.65;;
20036;SDS011;10179;42.640;23.312;2024-01-15T08:03:43;47.80;;;24.70;;
20036;SDS011;10179;42.640;23.312;2024-01-15T08:06:08;36.88;;;18.63;;
20036;SDS011;10179;42.640;23.312;2024-01-15T08:08:35;42.50;;;22.88;;
20036;SDS011;10179;42.640;23.312;2024-01-15T08:11:00;49.30;;;22.40;;
20036;SDS011;10179;42.640;23.312;2024-01-15T08:13:26;45.72;;;21.67;;
20036;SDS011;10179;42.640;23.312;2024-01-15T08:15:52;30.30;;;16.05;;
20036;SDS011;10179;42.640;23.312;2024-01-15T08:18:17;34.05;;;17.00;;
20036;SDS011;10179;42.640;23.312;2024-01-15T08:20:42;36.97;;;19.33;;
20036;SDS011;10179;42.640;23.312;2024-01-15T08:23:08;36.25;;;16.63;;
20036;SDS011;10179;42.640;23.312;2024-01-15T08:25:34;33.47;;;16.85;;
20036;SDS011;10179;42.640;23.312;2024-01-15T08:27:59;47.35;;;20.25;;
20036;SDS011;10179;42.640;23.312;2024-01-15T08:30:25;51.47;;;18.45;;
20036;SDS011;10179;42.640;23.312;2024-01-15T08:32:53;41.28;;;18.40;;
20036;SDS011;10179;42.640;23.312;2024-01-15T08:35:19;38.53;;;18.05;;
20036;SDS011;10179;42.640;23.312;2024-01-15T08:37:47;50.65;;;22.50;;
20036;SDS011;10179;42.640;23.312;2024-01-15T08:40:16;43.70;;;20.92;;
20036;SDS011;10179;42.640;23.312;2024-01-15T08:42:42;38.58;;;18.38;;
20036;SDS011;10179;42.640;23.312;2024-01-15T08:45:08;35.85;;;17.67;;
20036;SDS011;10179;42.640;23.312;2024-01-15T08:47:34;34.95;;;18.48;;
20036;SDS011;10179;42.640;23.312;2024-01-15T08:49:59;40.20;;;19.10;;
20036;SDS011;10179;42.640;23.312;2024-01-15T08:52:25;41.35;;;18.65;;
20036;SDS011;10179;42.640;23.312;2024-01-15T08:54:50;35.10;;;18.40;;
20036;SDS011;10179;42.640;23.312;2024-01-15T08:57:15;37.75;;;18.73;;
20036;SDS011;10179;42.640;23.312;2024-01-15T08:59:41;36.92;;;20.50;;
20036;SDS011;10179;42.640;23.312;2024-01-15T09:02:06;38.60;;;18.17;;
20036;SDS011;10179;42.640;23.312;2024-01-15T09:04:32;36.03;;;17.73;;
20036;SDS011;10179;42.640;23.312;2024-01-15T09:06:58;44.03;;;21.42;;
20036;SDS011;10179;42.640;23.312;2024-01-15T09:09:23;43.00;;;21.15;;
20036;SDS011;10179;42.640;23.312;2024-01-15T09:11:50;40.33;;;20.88;;
20036;SDS011;10179;42.640;23.312;2024-01-15T09:14:15;38.03;;;19.73;;
20036;SDS011;10179;42.640;23.312;2024-01-15T09:16:41;41.10;;;19.73;;
20036;SDS011;10179;42.640;23.312;2024-01-15T09:19:06;44.97;;;21.80;;
20036;SDS011;10179;42.640;23.312;2024-01-15T09:21:31;38.85;;;19.60;;
20036;SDS011;10179;42.640;23.312;2024-01-15T09:23:57;40.90;;;18.55;;
20036;SDS011;10179;42.640;23.312;2024-01-15T09:26:23;45.33;;;19.25;;
20036;SDS011;10179;42.640;23.312;2024-01-15T09:28:49;51.28;;;19.73;;
20036;SDS011;10179;42.640;23.312;2024-01-15T09:31:14;46.72;;;22.42;;
20036;SDS011;10179;42.640;23.312;2024-01-15T09:33:40;55.45;;;24.40;;
20036;SDS011;10179;42.640;23.312;2024-01-15T09:36:05;40.67;;;20.02;;
20036;SDS011;10179;42.640;23.312;2024-01-15T09:38:31;39.03;;;18.55;;
20036;SDS011;10179;42.640;23.312;2024-01-15T09:40:56;54.90;;;25.17;;
20036;SDS011;10179;42.640;23.312;2024-01-15T09:43:22;54.83;;;24.35;;
20036;SDS011;10179;42.640;23.312;2024-01-15T09:45:47;67.03;;;33.78;;
20036;SDS011;10179;42.640;23.312;2024-01-15T09:48:14;51.78;;;24.95;;
20036;SDS011;10179;42.640;23.312;2024-01-15T09:50:40;68.15;;;27.33;;
20036;SDS011;10179;42.640;23.312;2024-01-15T09:53:05;50.17;;;23.13;;
20036;SDS011;10179;42.640;23.312;2024-01-15T09:55:31;50.92;;;26.33;;
20036;SDS011;10179;42.640;23.312;2024-01-15T09:57:57;46.05;;;19.27;;
20036;SDS011;10179;42.640;23.312;2024-01-15T10:00:25;45.50;;;20.20;;
20036;SDS011;10179;42.640;23.312;2024-01-15T10:02:52;41.03;;;20.60;;
20036;SDS011;10179;42.640;23.312;2024-01-15T10:05:18;51.47;;;22.73;;
20036;SDS011;10179;42.640;23.312;2024-01-15T10:07:43;48.20;;;23.10;;
20036;SDS011;10179;42.640;23.312;2024-01-15T10:10:11;60.90;;;25.65;;
20036;SDS011;10179;42.640;23.312;2024-01-15T10:12:36;39.05;;;17.40;;
20036;SDS011;10179;42.640;23.312;2024-01-15T10:15:04;69.88;;;28.55;;
20036;SDS011;10179;42.640;23.312;2024-01-15T10:17:30;62.42;;;26.90;;
20036;SDS011;10179;42.640;23.312;2024-01-15T10:19:56;72.90;;;32.20;;
20036;SDS011;10179;42.640;23.312;2024-01-15T10:22:22;71.97;;;30.90;;
20036;SDS011;10179;42.640;23.312;2024-01-15T10:24:48;56.47;;;28.42;;
20036;SDS011;10179;42.640;23.312;2024-01-15T10:27:13;63.45;;;34.05;;
20036;SDS011;10179;42.640;23.312;2024-01-15T10:29:40;66.70;;;32.33;;
20036;SDS011;10179;42.640;23.312;2024-01-15T10:32:07;76.13;;;35.47;;
20036;SDS011;10179;42.640;23.312;2024-01-15T10:34:34;51.80;;;27.52;;
20036;SDS011;10179;42.640;23.312;2024-01-15T10:37:03;79.22;;;41.45;;
20036;SDS011;10179;42.640;23.312;2024-01-15T10:39:29;69.57;;;36.53;;
20036;SDS011;10179;42.640;23.312;2024-01-15T10:41:55;69.20;;;35.08;;
20036;SDS011;10179;42.640;23.312;2024-01-15T10:44:20;80.55;;;37.45;;
20036;SDS011;10179;42.640;23.312;2024-01-15T10:46:46;77.90;;;34.47;;
20036;SDS011;10179;42.640;23.312;2024-01-15T10:49:12;74.53;;;33.58;;
20036;SDS011;10179;42.640;23.312;2024-01-15T10:51:37;95.57;;;46.38;;
20036;SDS011;10179;42.640;23.312;2024-01-15T10:54:03;82.47;;;31.88;;
20036;SDS011;10179;42.640;23.312;2024-01-15T10:56:30;77.68;;;40.00;;
20036;SDS011;10179;42.640;23.312;2024-01-15T10:58:57;83.22;;;42.47;;
20036;SDS011;10179;42.640;23.312;2024-01-15T11:01:23;80.90;;;38.88;;
20036;SDS011;10179;42.640;23.312;2024-01-15T11:03:49;86.80;;;42.33;;
20036;SDS011;10179;42.640;23.312;2024-01-15T11:06:18;86.60;;;38.65;;
20036;SDS011;10179;42.640;23.312;2024-01-15T11:08:49;76.25;;;37.75;;
20036;SDS011;10179;42.640;23.312;2024-01-15T11:11:17;70.50;;;34.15;;
20036;SDS011;10179;42.640;23.312;2024-01-15T11:13:42;77.40;;;39.00;;
20036;SDS011;10179;42.640;23.312;2024-01-15T11:16:11;84.05;;;41.28;;
20036;SDS011;10179;42.640;23.312;2024-01-15T11:21:25;63.30;;;34.92;;
20036;SDS011;10179;42.640;23.312;2024-01-15T11:24:01;78.97;;;34.10;;
20036;SDS011;10179;42.640;23.312;2024-01-15T11:26:30;48.55;;;22.75;;
20036;SDS011;10179;42.640;23.312;2024-01-15T11:28:56;74.53;;;33.47;;
20036;SDS011;10179;42.640;23.312;2024-01-15T11:31:29;61.63;;;31.75;;
20036;SDS011;10179;42.640;23.312;2024-01-15T11:34:15;62.72;;;29.52;;
20036;SDS011;10179;42.640;23.312;2024-01-15T11:41:56;57.08;;;26.63;;
20036;SDS011;10179;42.640;23.312;2024-01-15T11:44:23;60.30;;;30.33;;
20036;SDS011;10179;42.640;23.312;2024-01-15T11:47:02;58.78;;;31.05;;
20036;SDS011;10179;42.640;23.312;2024-01-15T11:49:42;66.60;;;30.48;;
20036;SDS011;10179;42.640;23.312;2024-01-15T11:52:12;55.20;;;29.23;;
20036;SDS011;10179;42.640;23.312;2024-01-15T11:54:42;63.65;;;29.55;;
20036;SDS011;10179;42.640;23.312;2024-01-15T11:57:16;66.45;;;31.20;;
20036;SDS011;10179;42.640;23.312;2024-01-15T11:59:50;54.70;;;27.42;;
20036;SDS011;10179;42.640;23.312;2024-01-15T12:02:15;67.90;;;31.25;;
20036;SDS011;10179;42.640;23.312;2024-01-15T12:04:41;61.92;;;29.67;;
20036;SDS011;10179;42.640;23.312;2024-01-15T12:07:06;57.97;;;29.85;;
20036;SDS011;10179;42.640;23.312;2024-01-15T12:09:31;73.90;;;30.73;;
20036;SDS011;10179;42.640;23.312;2024-01-15T12:12:02;49.40;;;23.35;;
20036;SDS011;10179;42.640;23.312;2024-01-15T12:14:32;42.38;;;18.15;;
20036;SDS011;10179;42.640;23.312;2024-01-15T12:16:59;42.05;;;20.33;;
20036;SDS011;10179;42.640;23.312;2024-01-15T12:19:25;56.45;;;24.70;;
20036;SDS011;10179;42.640;23.312;2024-01-15T12:21:51;55.97;;;26.23;;
20036;SDS011;10179;42.640;23.312;2024-01-15T12:24:17;66.78;;;27.65;;
20036;SDS011;10179;42.640;23.312;2024-01-15T12:26:42;65.88;;;27.02;;
20036;SDS011;10179;42.640;23.312;2024-01-15T12:29:08;64.05;;;29.98;;
20036;SDS011;10179;42.640;23.312;2024-01-15T12:31:36;62.95;;;27.73;;
20036;SDS011;10179;42.640;23.312;2024-01-15T12:34:01;51.55;;;26.27;;
20036;SDS011;10179;42.640;23.312;2024-01-15T12:36:27;53.72;;;25.30;;
20036;SDS011;10179;42.640;23.312;2024-01-15T12:38:58;64.43;;;28.15;;
20036;SDS011;10179;42.640;23.312;2024-01-15T12:41:24;56.67;;;27.45;;
20036;SDS011;10179;42.640;23.312;2024-01-15T12:43:50;53.25;;;26.67;;
20036;SDS011;10179;42.640;23.312;2024-01-15T12:46:15;55.30;;;25.67;;
20036;SDS011;10179;42.640;23.312;2024-01-15T12:48:41;54.17;;;25.30;;
20036;SDS011;10179;42.640;23.312;2024-01-15T12:51:07;52.70;;;24.80;;
20036;SDS011;10179;42.640;23.312;2024-01-15T12:53:33;52.25;;;23.80;;
20036;SDS011;10179;42.640;23.312;2024-01-15T12:55:58;49.92;;;23.40;;
20036;SDS011;10179;42.640;23.312;2024-01-15T12:58:23;60.13;;;28.45;;
20036;SDS011;10179;42.640;23.312;2024-01-15T13:00:49;55.85;;;25.60;;
20036;SDS011;10179;42.640;23.312;2024-01-15T13:03:15;43.92;;;21.80;;
20036;SDS011;10179;42.640;23.312;2024-01-15T13:05:40;53.90;;;23.50;;
20036;SDS011;10179;42.640;23.312;2024-01-15T13:08:06;45.47;;;22.95;;
20036;SDS011;10179;42.640;23.312;2024-01-15T13:10:32;43.55;;;21.58;;
20036;SDS011;10179;42.640;23.312;2024-01-15T13:12:57;47.08;;;22.02;;
20036;SDS011;10179;42.640;23.312;2024-01-15T13:15:23;45.00;;;22.90;;
20036;SDS011;10179;42.640;23.312;2024-01-15T13:17:48;45.58;;;22.90;;
20036;SDS011;10179;42.640;23.312;2024-01-15T13:20:13;53.90;;;23.77;;
20036;SDS011;10179;42.640;23.312;2024-01-15T13:22:39;42.53;;;23.10;;
20036;SDS011;10179;42.640;23.312;2024-01-15T13:25:05;51.70;;;23.92;;
20036;SDS011;10179;42.640;23.312;2024-01-15T13:27:32;56.97;;;27.15;;
20036;SDS011;10179;42.640;23.312;2024-01-15T13:29:59;48.47;;;24.35;;
20036;SDS011;10179;42.640;23.312;2024-01-15T13:32:25;44.80;;;22.13;;
20036;SDS011;10179;42.640;23.312;2024-01-15T13:34:55;45.75;;;23.55;;
20036;SDS011;10179;42.640;23.312;2024-01-15T13:37:21;42.60;;;22.00;;
20036;SDS011;10179;42.640;23.312;2024-01-15T13:39:48;52.00;;;24.05;;
20036;SDS011;10179;42.640;23.312;2024-01-15T13:42:14;49.30;;;25.52;;
20036;SDS011;10179;42.640;23.312;2024-01-15T13:44:40;74.88;;;33.25;;
20036;SDS011;10179;42.640;23.312;2024-01-15T13:47:06;58.10;;;25.73;;
20036;SDS011;10179;42.640;23.312;2024-01-15T13:49:31;53.72;;;26.92;;
20036;SDS011;10179;42.640;23.312;2024-01-15T13:51:59;80.38;;;29.85;;
20036;SDS011;10179;42.640;23.312;2024-01-15T13:54:24;55.58;;;26.63;;
20036;SDS011;10179;42.640;23.312;2024-01-15T13:56:49;55.60;;;25.98;;
20036;SDS011;10179;42.640;23.312;2024-01-15T13:59:15;54.65;;;26.63;;
20036;SDS011;10179;42.640;23.312;2024-01-15T14:01:40;49.08;;;26.23;;
20036;SDS011;10179;42.640;23.312;2024-01-15T14:04:05;47.30;;;25.90;;
20036;SDS011;10179;42.640;23.312;2024-01-15T14:06:31;60.20;;;27.95;;
20036;SDS011;10179;42.640;23.312;2024-01-15T14:08:56;58.35;;;27.40;;